sensor_id;sensor_type;location;lat;lon;timestamp;pressure;altitude;pressure_sealevel;temperature;humidity
78835;BME280;68187;42.682;23.352;2024-03-02T00:01:45;94607.41;;;7.85;78.39
78835;BME280;68187;42.682;23.352;2024-03-02T00:04:12;94616.84;;;7.86;78.79
78835;BME280;68187;42.682;23.352;2024-03-02T00:06:39;94615.81;;;7.87;78.40
78835;BME280;68187;42.682;23.352;2024-03-02T00:09:09;94620.00;;;7.88;78.29
78835;BME280;68187;42.682;23.352;2024-03-02T00:11:39;94614.00;;;7.88;78.34
78835;BME280;68187;42.682;23.352;2024-03-02T00:14:06;94615.56;;;7.89;78.14
78835;BME280;68187;42.682;23.352;2024-03-02T00:16:34;94622.13;;;7.86;78.49
78835;BME280;68187;42.682;23.352;2024-03-02T00:19:02;94610.53;;;7.77;78.92
78835;BME280;68187;42.682;23.352;2024-03-02T00:21:29;94616.31;;;7.79;78.64
78835;BME280;68187;42.682;23.352;2024-03-02T00:23:57;94612.41;;;7.87;78.43
78835;BME280;68187;42.682;23.352;2024-03-02T00:26:24;94601.59;;;7.78;78.03
78835;BME280;68187;42.682;23.352;2024-03-02T00:28:54;94611.31;;;7.78;78.60
78835;BME280;68187;42.682;23.352;2024-03-02T00:31:22;94617.63;;;7.82;78.95
78835;BME280;68187;42.682;23.352;2024-03-02T00:33:49;94610.56;;;7.87;78.58
78835;BME280;68187;42.682;23.352;2024-03-02T00:36:17;94603.19;;;7.84;78.91
78835;BME280;68187;42.682;23.352;2024-03-02T00:38:50;94609.75;;;7.82;78.74
78835;BME280;68187;42.682;23.352;2024-03-02T00:41:21;94605.56;;;7.81;78.76
78835;BME280;68187;42.682;23.352;2024-03-02T00:43:58;94606.09;;;7.83;78.69
78835;BME280;68187;42.682;23.352;2024-03-02T00:46:27;94608.47;;;7.89;77.90
78835;BME280;68187;42.682;23.352;2024-03-02T00:48:57;94608.47;;;7.95;78.16
78835;BME280;68187;42.682;23.352;2024-03-02T00:51:25;94604.25;;;7.99;77.75
78835;BME280;68187;42.682;23.352;2024-03-02T00:53:53;94586.91;;;7.98;77.42
78835;BME280;68187;42.682;23.352;2024-03-02T00:56:22;94598.22;;;7.98;77.04
78835;BME280;68187;42.682;23.352;2024-03-02T00:58:50;94591.13;;;7.99;77.08
78835;BME280;68187;42.682;23.352;2024-03-02T01:01:18;94592.16;;;8.03;76.99
78835;BME280;68187;42.682;23.352;2024-03-02T01:03:46;94597.44;;;8.03;76.35
78835;BME280;68187;42.682;23.352;2024-03-02T01:06:14;94588.22;;;8.05;76.30
78835;BME280;68187;42.682;23.352;2024-03-02T01:08:41;94595.84;;;8.12;76.62
78835;BME280;68187;42.682;23.352;2024-03-02T01:11:08;94597.97;;;8.15;75.97
78835;BME280;68187;42.682;23.352;2024-03-02T01:13:35;94591.66;;;8.16;75.89
78835;BME280;68187;42.682;23.352;2024-03-02T01:16:03;94592.72;;;8.15;76.69
78835;BME280;68187;42.682;23.352;2024-03-02T01:18:31;94578.50;;;8.16;76.89
78835;BME280;68187;42.682;23.352;2024-03-02T01:20:59;94577.72;;;8.20;76.25
78835;BME280;68187;42.682;23.352;2024-03-02T01:23:26;94562.75;;;8.11;77.14
78835;BME280;68187;42.682;23.352;2024-03-02T01:25:53;94576.41;;;8.23;76.22
78835;BME280;68187;42.682;23.352;2024-03-02T01:28:20;94576.94;;;8.20;76.74
78835;BME280;68187;42.682;23.352;2024-03-02T01:30:47;94570.34;;;8.22;76.62
78835;BME280;68187;42.682;23.352;2024-03-02T01:33:14;94570.34;;;8.12;77.07
78835;BME280;68187;42.682;23.352;2024-03-02T01:35:43;94569.84;;;8.15;77.02
78835;BME280;68187;42.682;23.352;2024-03-02T01:38:09;94566.94;;;8.17;76.69
78835;BME280;68187;42.682;23.352;2024-03-02T01:40:37;94573.25;;;8.21;76.53
78835;BME280;68187;42.682;23.352;2024-03-02T01:43:04;94566.69;;;8.23;76.65
78835;BME280;68187;42.682;23.352;2024-03-02T01:45:32;94566.19;;;8.26;77.02
78835;BME280;68187;42.682;23.352;2024-03-02T01:47:59;94553.78;;;8.22;77.48
78835;BME280;68187;42.682;23.352;2024-03-02T01:50:27;94554.59;;;8.27;78.02
78835;BME280;68187;42.682;23.352;2024-03-02T01:52:56;94558.50;;;8.25;78.01
78835;BME280;68187;42.682;23.352;2024-03-02T01:55:23;94551.97;;;8.27;78.28
78835;BME280;68187;42.682;23.352;2024-03-02T01:57:50;94564.56;;;8.20;78.49
78835;BME280;68187;42.682;23.352;2024-03-02T02:00:18;94552.19;;;8.21;78.74
78835;BME280;68187;42.682;23.352;2024-03-02T02:02:45;94561.16;;;8.20;78.41
78835;BME280;68187;42.682;23.352;2024-03-02T02:05:12;94556.16;;;8.23;78.38
78835;BME280;68187;42.682;23.352;2024-03-02T02:07:40;94561.94;;;8.10;78.71
78835;BME280;68187;42.682;23.352;2024-03-02T02:10:09;94563.25;;;8.08;79.03
78835;BME280;68187;42.682;23.352;2024-03-02T02:12:36;94562.75;;;8.11;78.77
78835;BME280;68187;42.682;23.352;2024-03-02T02:15:04;94565.59;;;8.09;78.95
78835;BME280;68187;42.682;23.352;2024-03-02T02:17:31;94554.84;;;8.06;78.95
78835;BME280;68187;42.682;23.352;2024-03-02T02:19:58;94557.47;;;8.06;79.78
78835;BME280;68187;42.682;23.352;2024-03-02T02:22:26;94555.38;;;8.08;79.53
78835;BME280;68187;42.682;23.352;2024-03-02T02:24:53;94552.72;;;8.08;78.87
78835;BME280;68187;42.682;23.352;2024-03-02T02:27:20;94564.81;;;8.09;78.99
78835;BME280;68187;42.682;23.352;2024-03-02T02:29:47;94551.66;;;8.09;79.57
78835;BME280;68187;42.682;23.352;2024-03-02T02:32:14;94547.47;;;8.03;79.75
78835;BME280;68187;42.682;23.352;2024-03-02T02:34:41;94551.16;;;8.02;79.31
78835;BME280;68187;42.682;23.352;2024-03-02T02:37:07;94549.84;;;7.94;79.67
78835;BME280;68187;42.682;23.352;2024-03-02T02:39:36;94555.09;;;7.94;79.62
78835;BME280;68187;42.682;23.352;2024-03-02T02:42:03;94550.09;;;7.87;80.24
78835;BME280;68187;42.682;23.352;2024-03-02T02:44:30;94548.78;;;7.90;79.73
78835;BME280;68187;42.682;23.352;2024-03-02T02:46:57;94559.56;;;7.93;79.77
78835;BME280;68187;42.682;23.352;2024-03-02T02:49:24;94554.28;;;7.93;79.77
78835;BME280;68187;42.682;23.352;2024-03-02T02:51:50;94557.44;;;7.96;79.75
78835;BME280;68187;42.682;23.352;2024-03-02T02:54:18;94559.56;;;7.93;79.51
78835;BME280;68187;42.682;23.352;2024-03-02T02:56:46;94544.84;;;7.93;79.20
78835;BME280;68187;42.682;23.352;2024-03-02T02:59:13;94554.56;;;7.92;79.50
78835;BME280;68187;42.682;23.352;2024-03-02T03:01:40;94560.63;;;7.87;80.04
78835;BME280;68187;42.682;23.352;2024-03-02T03:04:07;94559.53;;;7.88;79.84
78835;BME280;68187;42.682;23.352;2024-03-02T03:06:34;94561.38;;;7.93;79.55
78835;BME280;68187;42.682;23.352;2024-03-02T03:09:01;94561.41;;;7.98;79.37
78835;BME280;68187;42.682;23.352;2024-03-02T03:11:28;94553.78;;;8.02;79.21
78835;BME280;68187;42.682;23.352;2024-03-02T03:13:56;94539.59;;;8.08;79.32
78835;BME280;68187;42.682;23.352;2024-03-02T03:16:25;94554.28;;;8.09;79.75
78835;BME280;68187;42.682;23.352;2024-03-02T03:18:52;94549.59;;;8.11;79.27
78835;BME280;68187;42.682;23.352;2024-03-02T03:21:19;94543.00;;;8.13;79.37
78835;BME280;68187;42.682;23.352;2024-03-02T03:23:46;94559.06;;;8.17;79.18
78835;BME280;68187;42.682;23.352;2024-03-02T03:26:13;94559.06;;;8.17;79.04
78835;BME280;68187;42.682;23.352;2024-03-02T03:28:40;94553.00;;;8.16;78.98
78835;BME280;68187;42.682;23.352;2024-03-02T03:31:08;94552.19;;;8.16;79.11
78835;BME280;68187;42.682;23.352;2024-03-02T03:33:36;94559.03;;;8.12;79.49
78835;BME280;68187;42.682;23.352;2024-03-02T03:36:03;94558.00;;;8.13;79.78
78835;BME280;68187;42.682;23.352;2024-03-02T03:38:30;94556.94;;;8.14;79.26
78835;BME280;68187;42.682;23.352;2024-03-02T03:40:57;94554.56;;;8.12;79.40
78835;BME280;68187;42.682;23.352;2024-03-02T03:43:24;94560.09;;;8.11;79.35
78835;BME280;68187;42.682;23.352;2024-03-02T03:45:51;94562.47;;;7.97;79.84
78835;BME280;68187;42.682;23.352;2024-03-02T03:48:20;94557.97;;;8.03;79.18
78835;BME280;68187;42.682;23.352;2024-03-02T03:50:46;94560.09;;;8.01;79.54
78835;BME280;68187;42.682;23.352;2024-03-02T03:53:14;94551.41;;;8.00;79.52
78835;BME280;68187;42.682;23.352;2024-03-02T03:55:41;94554.03;;;8.00;79.15
78835;BME280;68187;42.682;23.352;2024-03-02T03:58:08;94552.72;;;8.03;79.82
78835;BME280;68187;42.682;23.352;2024-03-02T04:00:35;94557.44;;;7.96;79.92
78835;BME280;68187;42.682;23.352;2024-03-02T04:03:02;94550.59;;;8.00;79.70
78835;BME280;68187;42.682;23.352;2024-03-02T04:05:30;94548.53;;;8.02;79.10
78835;BME280;68187;42.682;23.352;2024-03-02T04:07:57;94555.09;;;8.04;79.16
78835;BME280;68187;42.682;23.352;2024-03-02T04:10:24;94544.56;;;7.94;79.68
78835;BME280;68187;42.682;23.352;2024-03-02T04:12:51;94545.34;;;8.00;79.68
78835;BME280;68187;42.682;23.352;2024-03-02T04:15:17;94550.09;;;8.03;79.31
78835;BME280;68187;42.682;23.352;2024-03-02T04:17:45;94548.78;;;8.05;78.98
78835;BME280;68187;42.682;23.352;2024-03-02T04:20:12;94544.84;;;8.08;79.34
78835;BME280;68187;42.682;23.352;2024-03-02T04:22:40;94552.72;;;8.08;78.88
78835;BME280;68187;42.682;23.352;2024-03-02T04:25:08;94556.94;;;8.09;78.99
78835;BME280;68187;42.682;23.352;2024-03-02T04:27:35;94548.78;;;8.10;79.35
78835;BME280;68187;42.682;23.352;2024-03-02T04:30:02;94557.72;;;8.09;79.47
78835;BME280;68187;42.682;23.352;2024-03-02T04:32:30;94552.72;;;8.08;80.01
78835;BME280;68187;42.682;23.352;2024-03-02T04:34:57;94559.81;;;8.07;80.15
78835;BME280;68187;42.682;23.352;2024-03-02T04:37:24;94561.41;;;8.03;80.05
78835;BME280;68187;42.682;23.352;2024-03-02T04:39:52;94561.13;;;8.05;79.56
78835;BME280;68187;42.682;23.352;2024-03-02T04:42:19;94560.09;;;8.06;79.32
78835;BME280;68187;42.682;23.352;2024-03-02T04:44:46;94568.78;;;8.01;79.70
78835;BME280;68187;42.682;23.352;2024-03-02T04:47:13;94563.50;;;8.01;79.92
78835;BME280;68187;42.682;23.352;2024-03-02T04:49:40;94571.94;;;8.03;80.18
78835;BME280;68187;42.682;23.352;2024-03-02T04:52:07;94565.59;;;8.04;80.01
78835;BME280;68187;42.682;23.352;2024-03-02T04:54:34;94564.06;;;8.08;80.36
78835;BME280;68187;42.682;23.352;2024-03-02T04:57:23;94574.56;;;8.08;81.09
78835;BME280;68187;42.682;23.352;2024-03-02T04:59:49;94567.72;;;8.02;81.16
78835;BME280;68187;42.682;23.352;2024-03-02T05:02:16;94573.75;;;8.03;81.20
78835;BME280;68187;42.682;23.352;2024-03-02T05:04:42;94572.44;;;8.05;80.84
78835;BME280;68187;42.682;23.352;2024-03-02T05:07:09;94578.22;;;8.02;80.89
78835;BME280;68187;42.682;23.352;2024-03-02T05:09:36;94580.84;;;8.02;81.68
78835;BME280;68187;42.682;23.352;2024-03-02T05:12:03;94582.72;;;8.02;82.17
78835;BME280;68187;42.682;23.352;2024-03-02T05:14:50;94576.66;;;8.01;82.17
78835;BME280;68187;42.682;23.352;2024-03-02T05:17:17;94586.63;;;8.04;82.38
78835;BME280;68187;42.682;23.352;2024-03-02T05:19:43;94582.69;;;8.07;82.57
78835;BME280;68187;42.682;23.352;2024-03-02T05:22:10;94593.22;;;8.12;82.58
78835;BME280;68187;42.682;23.352;2024-03-02T05:24:37;94592.44;;;8.11;82.71
78835;BME280;68187;42.682;23.352;2024-03-02T05:27:04;94596.91;;;8.06;83.46
78835;BME280;68187;42.682;23.352;2024-03-02T05:29:33;94596.13;;;8.05;83.11
78835;BME280;68187;42.682;23.352;2024-03-02T05:32:01;94595.59;;;8.03;83.10
78835;BME280;68187;42.682;23.352;2024-03-02T05:34:28;94604.00;;;8.05;83.07
78835;BME280;68187;42.682;23.352;2024-03-02T05:36:56;94606.91;;;8.09;83.46
78835;BME280;68187;42.682;23.352;2024-03-02T05:39:23;94601.13;;;8.12;83.50
78835;BME280;68187;42.682;23.352;2024-03-02T05:41:50;94603.25;;;8.15;82.96
78835;BME280;68187;42.682;23.352;2024-03-02T05:44:17;94606.66;;;8.15;83.63
78835;BME280;68187;42.682;23.352;2024-03-02T05:46:45;94615.09;;;8.17;83.60
78835;BME280;68187;42.682;23.352;2024-03-02T05:49:13;94618.47;;;8.18;83.19
78835;BME280;68187;42.682;23.352;2024-03-02T05:51:40;94617.19;;;8.15;83.91
78835;BME280;68187;42.682;23.352;2024-03-02T05:54:07;94615.59;;;8.14;84.24
78835;BME280;68187;42.682;23.352;2024-03-02T05:56:34;94614.56;;;8.15;83.73
78835;BME280;68187;42.682;23.352;2024-03-02T05:59:01;94613.50;;;8.16;84.02
78835;BME280;68187;42.682;23.352;2024-03-02T06:01:38;94620.34;;;8.17;83.65
78835;BME280;68187;42.682;23.352;2024-03-02T06:04:05;94618.47;;;8.18;83.81
78835;BME280;68187;42.682;23.352;2024-03-02T06:06:33;94622.44;;;8.20;83.64
78835;BME280;68187;42.682;23.352;2024-03-02T06:09:00;94624.53;;;8.18;84.45
78835;BME280;68187;42.682;23.352;2024-03-02T06:11:28;94619.53;;;8.17;83.76
78835;BME280;68187;42.682;23.352;2024-03-02T06:13:55;94621.63;;;8.10;83.99
78835;BME280;68187;42.682;23.352;2024-03-02T06:16:21;94634.28;;;8.13;83.96
78835;BME280;68187;42.682;23.352;2024-03-02T06:18:48;94619.00;;;8.05;84.63
78835;BME280;68187;42.682;23.352;2024-03-02T06:21:15;94620.81;;;8.04;84.86
78835;BME280;68187;42.682;23.352;2024-03-02T06:23:45;94626.88;;;8.00;84.96
78835;BME280;68187;42.682;23.352;2024-03-02T06:26:12;94624.50;;;7.98;84.96
78835;BME280;68187;42.682;23.352;2024-03-02T06:28:39;94624.78;;;8.02;84.89
78835;BME280;68187;42.682;23.352;2024-03-02T06:31:06;94629.50;;;8.00;84.24
78835;BME280;68187;42.682;23.352;2024-03-02T06:33:33;94629.25;;;7.96;84.76
78835;BME280;68187;42.682;23.352;2024-03-02T06:36:00;94626.88;;;7.95;85.01
78835;BME280;68187;42.682;23.352;2024-03-02T06:38:26;94628.69;;;7.89;85.13
78835;BME280;68187;42.682;23.352;2024-03-02T06:40:54;94628.97;;;7.87;84.74
78835;BME280;68187;42.682;23.352;2024-03-02T06:43:21;94630.78;;;7.87;85.49
78835;BME280;68187;42.682;23.352;2024-03-02T06:45:48;94637.38;;;7.89;84.90
78835;BME280;68187;42.682;23.352;2024-03-02T06:48:15;94636.06;;;7.87;84.94
78835;BME280;68187;42.682;23.352;2024-03-02T06:50:45;94637.66;;;7.88;84.84
78835;BME280;68187;42.682;23.352;2024-03-02T06:53:12;94633.94;;;7.89;84.80
78835;BME280;68187;42.682;23.352;2024-03-02T06:55:39;94633.69;;;7.85;84.91
78835;BME280;68187;42.682;23.352;2024-03-02T06:58:07;94642.13;;;7.93;84.93
78835;BME280;68187;42.682;23.352;2024-03-02T07:00:34;94642.91;;;7.93;85.12
78835;BME280;68187;42.682;23.352;2024-03-02T07:03:02;94643.44;;;7.90;85.48
78835;BME280;68187;42.682;23.352;2024-03-02T07:05:29;94642.13;;;7.93;85.28
78835;BME280;68187;42.682;23.352;2024-03-02T07:07:56;94647.63;;;7.91;85.40
78835;BME280;68187;42.682;23.352;2024-03-02T07:10:22;94648.16;;;7.98;85.22
78835;BME280;68187;42.682;23.352;2024-03-02T07:12:49;94645.03;;;8.01;85.40
78835;BME280;68187;42.682;23.352;2024-03-02T07:15:18;94650.53;;;8.00;85.39
78835;BME280;68187;42.682;23.352;2024-03-02T07:18:08;94656.06;;;7.88;85.22
78835;BME280;68187;42.682;23.352;2024-03-02T07:20:35;94655.25;;;7.87;84.94
78835;BME280;68187;42.682;23.352;2024-03-02T07:23:03;94653.94;;;7.85;85.04
78835;BME280;68187;42.682;23.352;2024-03-02T07:25:31;94654.47;;;7.87;85.15
78835;BME280;68187;42.682;23.352;2024-03-02T07:27:58;94651.25;;;7.75;86.13
78835;BME280;68187;42.682;23.352;2024-03-02T07:30:26;94651.03;;;7.76;86.27
78835;BME280;68187;42.682;23.352;2024-03-02T07:32:53;94652.34;;;7.79;86.28
78835;BME280;68187;42.682;23.352;2024-03-02T07:35:20;94658.91;;;7.86;86.11
78835;BME280;68187;42.682;23.352;2024-03-02T07:37:47;94648.69;;;7.90;86.59
78835;BME280;68187;42.682;23.352;2024-03-02T07:40:14;94659.47;;;7.93;86.40
78835;BME280;68187;42.682;23.352;2024-03-02T07:42:41;94659.47;;;7.93;86.71
78835;BME280;68187;42.682;23.352;2024-03-02T07:45:09;94666.03;;;7.91;86.24
78835;BME280;68187;42.682;23.352;2024-03-02T07:47:37;94660.22;;;7.84;87.09
78835;BME280;68187;42.682;23.352;2024-03-02T07:50:05;94660.78;;;7.91;86.13
78835;BME280;68187;42.682;23.352;2024-03-02T07:52:32;94665.22;;;7.90;86.13
78835;BME280;68187;42.682;23.352;2024-03-02T07:54:59;94671.56;;;7.89;86.14
78835;BME280;68187;42.682;23.352;2024-03-02T07:57:26;94668.38;;;7.82;86.38
78835;BME280;68187;42.682;23.352;2024-03-02T07:59:53;94668.38;;;7.82;86.26
78835;BME280;68187;42.682;23.352;2024-03-02T08:02:20;94671.03;;;7.87;86.17
78835;BME280;68187;42.682;23.352;2024-03-02T08:04:48;94672.09;;;7.91;86.27
78835;BME280;68187;42.682;23.352;2024-03-02T08:07:16;94676.03;;;7.94;86.71
78835;BME280;68187;42.682;23.352;2024-03-02T08:09:43;94684.47;;;7.96;86.56
78835;BME280;68187;42.682;23.352;2024-03-02T08:12:09;94685.22;;;7.91;87.45
78835;BME280;68187;42.682;23.352;2024-03-02T08:14:36;94680.00;;;8.02;86.34
78835;BME280;68187;42.682;23.352;2024-03-02T08:17:03;94677.38;;;8.02;86.54
78835;BME280;68187;42.682;23.352;2024-03-02T08:19:35;94682.66;;;8.02;87.04
78835;BME280;68187;42.682;23.352;2024-03-02T08:22:03;94679.50;;;8.10;86.36
78835;BME280;68187;42.682;23.352;2024-03-02T08:24:30;94678.44;;;8.06;86.14
78835;BME280;68187;42.682;23.352;2024-03-02T08:26:58;94678.69;;;8.04;86.20
78835;BME280;68187;42.682;23.352;2024-03-02T08:29:25;94682.66;;;8.12;85.87
78835;BME280;68187;42.682;23.352;2024-03-02T08:31:53;94673.19;;;8.11;86.65
78835;BME280;68187;42.682;23.352;2024-03-02T08:34:20;94681.59;;;8.08;86.02
78835;BME280;68187;42.682;23.352;2024-03-02T08:36:46;94679.00;;;8.13;86.14
78835;BME280;68187;42.682;23.352;2024-03-02T08:39:15;94675.56;;;8.17;86.01
78835;BME280;68187;42.682;23.352;2024-03-02T08:41:43;94673.72;;;8.23;86.65
78835;BME280;68187;42.682;23.352;2024-03-02T08:44:11;94679.03;;;8.28;86.12
78835;BME280;68187;42.682;23.352;2024-03-02T08:46:38;94674.31;;;8.30;86.37
78835;BME280;68187;42.682;23.352;2024-03-02T08:49:05;94677.75;;;8.40;85.94
78835;BME280;68187;42.682;23.352;2024-03-02T08:51:33;94678.25;;;8.47;84.98
78835;BME280;68187;42.682;23.352;2024-03-02T08:53:59;94675.63;;;8.52;85.09
78835;BME280;68187;42.682;23.352;2024-03-02T08:56:28;94671.44;;;8.61;84.96
78835;BME280;68187;42.682;23.352;2024-03-02T08:58:55;94666.19;;;8.67;85.08
78835;BME280;68187;42.682;23.352;2024-03-02T09:01:22;94672.75;;;8.79;85.28
78835;BME280;68187;42.682;23.352;2024-03-02T09:03:49;94670.91;;;8.85;84.04
78835;BME280;68187;42.682;23.352;2024-03-02T09:06:17;94679.84;;;8.94;84.02
78835;BME280;68187;42.682;23.352;2024-03-02T09:08:45;94673.53;;;9.00;84.72
78835;BME280;68187;42.682;23.352;2024-03-02T09:11:13;94671.16;;;9.08;83.82
78835;BME280;68187;42.682;23.352;2024-03-02T09:13:41;94674.28;;;9.15;83.61
78835;BME280;68187;42.682;23.352;2024-03-02T09:16:09;94678.50;;;9.21;83.33
78835;BME280;68187;42.682;23.352;2024-03-02T09:18:37;94679.53;;;9.20;83.42
78835;BME280;68187;42.682;23.352;2024-03-02T09:21:04;94685.34;;;9.27;83.09
78835;BME280;68187;42.682;23.352;2024-03-02T09:23:32;94686.13;;;9.33;82.61
78835;BME280;68187;42.682;23.352;2024-03-02T09:25:59;94686.13;;;9.23;81.52
78835;BME280;68187;42.682;23.352;2024-03-02T09:28:26;94691.13;;;9.34;81.96
78835;BME280;68187;42.682;23.352;2024-03-02T09:30:54;94689.81;;;9.37;81.18
78835;BME280;68187;42.682;23.352;2024-03-02T09:33:21;94687.97;;;9.32;81.00
78835;BME280;68187;42.682;23.352;2024-03-02T09:35:48;94691.91;;;9.30;80.67
78835;BME280;68187;42.682;23.352;2024-03-02T09:38:15;94693.53;;;9.16;80.68
78835;BME280;68187;42.682;23.352;2024-03-02T09:40:42;94692.19;;;9.18;81.22
78835;BME280;68187;42.682;23.352;2024-03-02T09:43:09;94692.72;;;9.20;82.20
78835;BME280;68187;42.682;23.352;2024-03-02T09:45:36;94694.84;;;9.18;82.52
78835;BME280;68187;42.682;23.352;2024-03-02T09:48:05;94693.28;;;9.17;83.52
78835;BME280;68187;42.682;23.352;2024-03-02T09:50:32;94699.34;;;9.13;81.73
78835;BME280;68187;42.682;23.352;2024-03-02T09:52:59;94684.31;;;9.13;81.55
78835;BME280;68187;42.682;23.352;2024-03-02T09:55:27;94697.75;;;9.02;82.54
78835;BME280;68187;42.682;23.352;2024-03-02T09:57:53;94700.66;;;8.85;82.83
78835;BME280;68187;42.682;23.352;2024-03-02T10:00:21;94703.03;;;8.92;82.23
78835;BME280;68187;42.682;23.352;2024-03-02T10:02:48;94696.97;;;8.91;83.20
78835;BME280;68187;42.682;23.352;2024-03-02T10:05:25;94698.81;;;8.91;83.03
78835;BME280;68187;42.682;23.352;2024-03-02T10:08:03;94692.50;;;8.97;82.71
78835;BME280;68187;42.682;23.352;2024-03-02T10:10:37;94692.47;;;9.02;82.68
78835;BME280;68187;42.682;23.352;2024-03-02T10:13:06;94697.22;;;9.10;82.66
78835;BME280;68187;42.682;23.352;2024-03-02T10:15:35;94692.19;;;9.13;83.31
78835;BME280;68187;42.682;23.352;2024-03-02T10:18:03;94693.78;;;9.19;83.02
78835;BME280;68187;42.682;23.352;2024-03-02T10:20:31;94685.88;;;9.19;83.59
78835;BME280;68187;42.682;23.352;2024-03-02T10:23:10;94695.88;;;9.22;83.65
78835;BME280;68187;42.682;23.352;2024-03-02T10:25:38;94688.25;;;9.26;83.07
78835;BME280;68187;42.682;23.352;2024-03-02T10:28:05;94694.84;;;9.23;82.88
78835;BME280;68187;42.682;23.352;2024-03-02T10:30:32;94686.94;;;9.18;83.62
78835;BME280;68187;42.682;23.352;2024-03-02T10:33:00;94691.44;;;9.08;83.83
78835;BME280;68187;42.682;23.352;2024-03-02T10:35:28;94681.41;;;9.05;83.92
78835;BME280;68187;42.682;23.352;2024-03-02T10:37:58;94682.50;;;9.04;83.79
78835;BME280;68187;42.682;23.352;2024-03-02T10:40:26;94690.41;;;9.04;83.52
78835;BME280;68187;42.682;23.352;2024-03-02T10:42:53;94685.09;;;9.09;83.51
78835;BME280;68187;42.682;23.352;2024-03-02T10:45:21;94678.78;;;9.10;84.20
78835;BME280;68187;42.682;23.352;2024-03-02T10:47:49;94677.22;;;9.04;83.44
78835;BME280;68187;42.682;23.352;2024-03-02T10:50:17;94679.84;;;8.99;83.97
78835;BME280;68187;42.682;23.352;2024-03-02T10:52:44;94683.81;;;8.96;84.40
78835;BME280;68187;42.682;23.352;2024-03-02T10:55:13;94676.41;;;8.88;84.06
78835;BME280;68187;42.682;23.352;2024-03-02T10:57:51;94673.28;;;8.76;85.30
78835;BME280;68187;42.682;23.352;2024-03-02T11:00:19;94679.59;;;8.75;85.73
78835;BME280;68187;42.682;23.352;2024-03-02T11:02:51;94678.28;;;8.88;84.34
78835;BME280;68187;42.682;23.352;2024-03-02T11:05:26;94671.16;;;8.88;84.60
78835;BME280;68187;42.682;23.352;2024-03-02T11:07:57;94669.03;;;9.05;83.97
78835;BME280;68187;42.682;23.352;2024-03-02T11:10:34;94673.00;;;9.13;83.19
78835;BME280;68187;42.682;23.352;2024-03-02T11:13:03;94669.03;;;9.10;83.62
78835;BME280;68187;42.682;23.352;2024-03-02T11:15:31;94665.34;;;9.16;83.31
78835;BME280;68187;42.682;23.352;2024-03-02T11:18:01;94659.59;;;8.94;83.95
78835;BME280;68187;42.682;23.352;2024-03-02T11:20:31;94669.56;;;9.07;83.39
78835;BME280;68187;42.682;23.352;2024-03-02T11:23:04;94667.97;;;9.11;83.43
78835;BME280;68187;42.682;23.352;2024-03-02T11:25:33;94662.47;;;9.03;83.06
78835;BME280;68187;42.682;23.352;2024-03-02T11:28:01;94666.69;;;8.99;83.93
78835;BME280;68187;42.682;23.352;2024-03-02T11:30:50;94668.53;;;9.03;83.69
78835;BME280;68187;42.682;23.352;2024-03-02T11:33:25;94663.78;;;9.10;83.93
78835;BME280;68187;42.682;23.352;2024-03-02T11:35:56;94663.22;;;9.13;83.63
78835;BME280;68187;42.682;23.352;2024-03-02T11:38:28;94662.19;;;9.04;82.73
78835;BME280;68187;42.682;23.352;2024-03-02T11:40:57;94665.63;;;9.10;83.14
78835;BME280;68187;42.682;23.352;2024-03-02T11:43:25;94660.63;;;8.98;83.36
78835;BME280;68187;42.682;23.352;2024-03-02T11:45:57;94659.03;;;9.07;83.07
78835;BME280;68187;42.682;23.352;2024-03-02T11:48:24;94655.88;;;9.10;83.71
78835;BME280;68187;42.682;23.352;2024-03-02T11:50:52;94664.31;;;9.07;83.42
78835;BME280;68187;42.682;23.352;2024-03-02T11:53:20;94660.88;;;9.02;83.94
78835;BME280;68187;42.682;23.352;2024-03-02T11:55:47;94664.84;;;8.99;83.43
78835;BME280;68187;42.682;23.352;2024-03-02T11:58:17;94662.97;;;9.05;83.00
78835;BME280;68187;42.682;23.352;2024-03-02T12:00:46;94661.66;;;9.12;83.10
78835;BME280;68187;42.682;23.352;2024-03-02T12:03:13;94665.09;;;9.13;83.04
78835;BME280;68187;42.682;23.352;2024-03-02T12:05:40;94662.19;;;9.09;82.21
78835;BME280;68187;42.682;23.352;2024-03-02T12:08:08;94658.22;;;9.07;82.82
78835;BME280;68187;42.682;23.352;2024-03-02T12:10:36;94659.53;;;9.14;82.93
78835;BME280;68187;42.682;23.352;2024-03-02T12:13:05;94657.16;;;9.23;82.71
78835;BME280;68187;42.682;23.352;2024-03-02T12:15:35;94662.66;;;9.31;82.56
78835;BME280;68187;42.682;23.352;2024-03-02T12:18:02;94659.78;;;9.38;81.99
78835;BME280;68187;42.682;23.352;2024-03-02T12:20:30;94664.22;;;9.43;82.48
78835;BME280;68187;42.682;23.352;2024-03-02T12:22:59;94662.66;;;9.31;80.77
78835;BME280;68187;42.682;23.352;2024-03-02T12:25:26;94663.22;;;9.33;80.22
78835;BME280;68187;42.682;23.352;2024-03-02T12:27:55;94667.69;;;9.38;80.45
78835;BME280;68187;42.682;23.352;2024-03-02T12:30:22;94660.28;;;9.40;79.75
78835;BME280;68187;42.682;23.352;2024-03-02T12:32:51;94660.53;;;9.39;79.69
78835;BME280;68187;42.682;23.352;2024-03-02T12:35:18;94654.22;;;9.40;79.82
78835;BME280;68187;42.682;23.352;2024-03-02T12:37:46;94663.16;;;9.44;79.81
78835;BME280;68187;42.682;23.352;2024-03-02T12:40:15;94653.66;;;9.48;80.05
78835;BME280;68187;42.682;23.352;2024-03-02T12:42:43;94659.19;;;9.51;80.48
78835;BME280;68187;42.682;23.352;2024-03-02T12:45:11;94660.47;;;9.59;80.19
78835;BME280;68187;42.682;23.352;2024-03-02T12:47:40;94656.50;;;9.66;79.54
78835;BME280;68187;42.682;23.352;2024-03-02T12:50:09;94661.53;;;9.63;79.15
78835;BME280;68187;42.682;23.352;2024-03-02T12:52:36;94656.78;;;9.65;78.65
78835;BME280;68187;42.682;23.352;2024-03-02T12:55:05;94658.59;;;9.69;78.90
78835;BME280;68187;42.682;23.352;2024-03-02T12:57:32;94660.69;;;9.72;78.86
78835;BME280;68187;42.682;23.352;2024-03-02T13:00:00;94660.94;;;9.76;77.69
78835;BME280;68187;42.682;23.352;2024-03-02T13:02:28;94664.63;;;9.75;77.58
78835;BME280;68187;42.682;23.352;2024-03-02T13:04:56;94668.88;;;9.71;77.47